createdAt,value
2023-03-20T00:02:27.979Z,9.50
2023-03-20T00:04:56.932Z,9.50
2023-03-20T00:07:26.223Z,9.50
2023-03-20T00:09:57.824Z,9.50
2023-03-20T00:12:27.244Z,9.40
2023-03-20T00:14:56.476Z,9.40
2023-03-20T00:17:26.692Z,9.40
2023-03-20T00:19:55.438Z,9.40
2023-03-20T00:22:24.186Z,9.20
2023-03-20T00:24:54.391Z,9.10
2023-03-20T00:27:23.188Z,8.90
2023-03-20T00:29:52.030Z,8.90
2023-03-20T00:32:21.049Z,8.90
2023-03-20T00:34:51.635Z,9.00
2023-03-20T00:37:20.406Z,8.90
2023-03-20T00:39:49.074Z,8.80
2023-03-20T00:42:22.424Z,9.00
2023-03-20T00:44:59.618Z,9.00
2023-03-20T00:47:30.231Z,9.00
2023-03-20T00:50:01.135Z,9.10
2023-03-20T00:52:30.057Z,9.10
2023-03-20T00:54:58.802Z,9.10
2023-03-20T00:57:31.211Z,9.20
2023-03-20T01:00:05.247Z,9.10
2023-03-20T01:02:34.747Z,9.30
2023-03-20T01:05:05.937Z,9.40
2023-03-20T01:07:34.893Z,9.40
2023-03-20T01:10:05.404Z,9.50
2023-03-20T01:12:34.266Z,9.50
2023-03-20T01:15:03.158Z,9.50
2023-03-20T01:17:32.010Z,9.50
2023-03-20T01:20:00.744Z,9.40
2023-03-20T01:22:31.206Z,9.50
2023-03-20T01:24:59.975Z,9.60
2023-03-20T01:27:28.774Z,9.70
2023-03-20T01:29:57.470Z,9.80
2023-03-20T01:32:26.361Z,9.90
2023-03-20T01:34:55.175Z,10.00
2023-03-20T01:37:27.482Z,9.90
2023-03-20T01:40:00.103Z,9.90
2023-03-20T01:42:30.342Z,9.90
2023-03-20T01:44:59.246Z,9.90
2023-03-20T01:47:31.055Z,9.80
2023-03-20T01:50:32.016Z,9.80
2023-03-20T01:53:16.312Z,9.90
2023-03-20T01:55:55.403Z,9.80
2023-03-20T01:58:30.676Z,9.70
2023-03-20T02:01:00.834Z,9.70
2023-03-20T02:03:29.885Z,9.60
2023-03-20T02:06:16.631Z,9.60
2023-03-20T02:09:05.357Z,9.60
2023-03-20T02:11:43.132Z,9.50
2023-03-20T02:14:13.436Z,9.50
2023-03-20T02:16:51.699Z,9.50
2023-03-20T02:19:32.997Z,9.40
2023-03-20T02:22:38.148Z,9.40
2023-03-20T02:25:42.516Z,9.50
2023-03-20T02:28:47.563Z,9.40
2023-03-20T02:31:47.240Z,9.40
2023-03-20T02:34:50.647Z,9.40
2023-03-20T02:37:46.153Z,9.30
2023-03-20T02:40:22.907Z,9.30
2023-03-20T02:42:59.624Z,9.20
2023-03-20T02:45:31.686Z,9.20
2023-03-20T02:48:17.964Z,9.20
2023-03-20T02:50:52.263Z,9.10
2023-03-20T02:53:32.622Z,9.10
2023-03-20T02:56:08.874Z,9.00
2023-03-20T02:58:42.157Z,9.10
2023-03-20T03:01:15.932Z,9.10
2023-03-20T03:03:49.790Z,9.10
2023-03-20T03:06:23.609Z,9.10
2023-03-20T03:09:00.084Z,9.10
2023-03-20T03:11:28.930Z,9.10
2023-03-20T03:13:59.490Z,9.20
2023-03-20T03:16:31.513Z,9.10
2023-03-20T03:19:06.688Z,9.10
2023-03-20T03:21:38.272Z,9.00
2023-03-20T03:24:26.741Z,9.00
2023-03-20T03:27:05.607Z,9.10
2023-03-20T03:29:37.382Z,9.10
2023-03-20T03:32:08.711Z,9.10
2023-03-20T03:34:38.435Z,9.20
2023-03-20T03:37:15.897Z,9.20
2023-03-20T03:39:52.208Z,9.10
2023-03-20T03:42:27.872Z,9.00
2023-03-20T03:45:00.871Z,9.00
2023-03-20T03:47:34.940Z,9.10
2023-03-20T03:50:08.497Z,9.10
2023-03-20T03:52:38.771Z,9.10
2023-03-20T03:55:13.836Z,8.90
2023-03-20T03:58:02.275Z,8.90
2023-03-20T04:00:33.635Z,8.90
2023-03-20T04:03:03.032Z,8.90
2023-03-20T04:05:35.192Z,8.90
2023-03-20T04:08:07.607Z,8.80
2023-03-20T04:10:37.769Z,8.80
2023-03-20T04:13:10.559Z,8.70
2023-03-20T04:15:39.531Z,8.70
2023-03-20T04:18:15.635Z,8.70
2023-03-20T04:20:45.187Z,8.70
2023-03-20T04:23:14.145Z,8.80
2023-03-20T04:25:44.351Z,8.90
2023-03-20T04:28:16.359Z,8.90
2023-03-20T04:30:55.134Z,8.90
2023-03-20T04:33:36.241Z,8.90
2023-03-20T04:36:22.846Z,8.90
2023-03-20T04:38:56.388Z,8.80
2023-03-20T04:41:27.950Z,8.70
2023-03-20T04:43:59.020Z,8.70
2023-03-20T04:46:28.137Z,8.70
2023-03-20T04:48:57.223Z,8.70
2023-03-20T04:51:29.529Z,8.70
2023-03-20T04:53:59.943Z,8.70
2023-03-20T04:56:30.643Z,8.80
2023-03-20T04:59:12.844Z,8.80
2023-03-20T05:01:41.897Z,8.80
2023-03-20T05:04:11.107Z,8.80
2023-03-20T05:06:39.920Z,8.90
2023-03-20T05:09:08.723Z,8.90
2023-03-20T05:11:40.346Z,8.80
2023-03-20T05:14:18.798Z,9.00
2023-03-20T05:17:13.904Z,9.00
2023-03-20T05:20:00.969Z,9.20
2023-03-20T05:23:03.436Z,9.20
2023-03-20T05:25:53.216Z,9.00
2023-03-20T05:28:37.878Z,9.10
2023-03-20T05:31:18.340Z,9.10
2023-03-20T05:34:05.358Z,9.10
2023-03-20T05:36:52.833Z,9.10
2023-03-20T05:39:39.098Z,9.10
2023-03-20T05:42:22.030Z,9.00
2023-03-20T05:45:12.879Z,9.10
2023-03-20T05:48:05.642Z,9.20
2023-03-20T05:50:43.492Z,9.10
2023-03-20T05:53:15.097Z,9.10
2023-03-20T05:56:07.489Z,9.00
2023-03-20T05:58:42.402Z,9.00
2023-03-20T06:01:31.459Z,9.00
2023-03-20T06:04:10.088Z,9.00
2023-03-20T06:06:59.082Z,9.00
2023-03-20T06:09:27.826Z,9.00
2023-03-20T06:11:59.316Z,9.10
2023-03-20T06:14:28.650Z,9.00
2023-03-20T06:17:03.487Z,8.90
2023-03-20T06:19:32.482Z,8.90
2023-03-20T06:22:01.261Z,9.00
2023-03-20T06:24:30.165Z,9.00
2023-03-20T06:26:59.624Z,9.10
2023-03-20T06:29:29.807Z,9.10
2023-03-20T06:32:12.319Z,9.10
2023-03-20T06:34:41.643Z,9.20
2023-03-20T06:37:10.575Z,9.00
2023-03-20T06:39:41.704Z,9.10
2023-03-20T06:42:16.096Z,9.10
2023-03-20T06:44:45.731Z,9.20
2023-03-20T06:47:27.144Z,9.10
2023-03-20T06:49:56.218Z,9.20
2023-03-20T06:52:25.365Z,9.10
2023-03-20T06:55:14.170Z,9.00
2023-03-20T06:57:43.254Z,8.90
2023-03-20T07:00:13.313Z,8.90
2023-03-20T07:02:43.811Z,8.80
2023-03-20T07:05:16.202Z,8.80
2023-03-20T07:07:45.280Z,8.80
2023-03-20T07:10:14.048Z,8.80
2023-03-20T07:12:49.548Z,8.70
2023-03-20T07:15:18.644Z,8.70
2023-03-20T07:17:49.057Z,8.80
2023-03-20T07:20:18.255Z,8.90
2023-03-20T07:22:49.608Z,9.00
2023-03-20T07:25:41.768Z,9.10
2023-03-20T07:28:12.991Z,9.20
2023-03-20T07:30:45.310Z,9.30
2023-03-20T07:33:19.552Z,9.40
2023-03-20T07:35:48.529Z,9.50
2023-03-20T07:38:17.219Z,9.40
2023-03-20T07:41:05.360Z,9.50
2023-03-20T07:43:36.219Z,9.60
2023-03-20T07:46:25.693Z,9.60
2023-03-20T07:48:58.255Z,9.60
2023-03-20T07:51:27.219Z,9.60
2023-03-20T07:53:55.898Z,9.70
2023-03-20T07:56:24.801Z,9.70
2023-03-20T07:58:53.437Z,9.80
2023-03-20T08:01:22.319Z,9.90
2023-03-20T08:03:51.564Z,10.00
2023-03-20T08:06:21.904Z,9.90
2023-03-20T08:08:52.587Z,9.90
2023-03-20T08:11:21.959Z,10.00
2023-03-20T08:13:50.705Z,10.10
2023-03-20T08:16:19.669Z,10.00
2023-03-20T08:18:50.552Z,9.80
2023-03-20T08:21:19.312Z,9.80
2023-03-20T08:23:49.525Z,9.80
2023-03-20T08:26:18.481Z,9.90
2023-03-20T08:28:48.678Z,9.90
2023-03-20T08:31:18.483Z,9.90
2023-03-20T08:33:48.088Z,10.00
2023-03-20T08:36:19.822Z,9.80
2023-03-20T08:38:51.219Z,9.90
2023-03-20T08:41:20.113Z,9.90
2023-03-20T08:43:49.026Z,10.10
2023-03-20T08:46:17.951Z,10.20
2023-03-20T08:48:46.831Z,10.30
2023-03-20T08:51:16.153Z,10.30
2023-03-20T08:53:44.891Z,10.50
2023-03-20T08:56:15.031Z,10.70
2023-03-20T08:58:44.075Z,10.60
2023-03-20T09:01:12.923Z,10.50
2023-03-20T09:03:41.692Z,10.50
2023-03-20T09:06:11.863Z,10.50
2023-03-20T09:08:40.942Z,10.50
2023-03-20T09:11:09.759Z,10.50
2023-03-20T09:13:39.871Z,10.40
2023-03-20T09:16:09.608Z,10.30
2023-03-20T09:18:38.513Z,10.20
2023-03-20T09:21:07.818Z,10.30
2023-03-20T09:23:36.665Z,10.40
2023-03-20T09:26:05.996Z,10.60
2023-03-20T09:28:34.870Z,10.70
2023-03-20T09:31:05.438Z,10.80
2023-03-20T09:33:34.172Z,10.80
2023-03-20T09:36:03.082Z,10.70
2023-03-20T09:38:31.967Z,10.60
2023-03-20T09:41:02.329Z,10.60
2023-03-20T09:43:45.758Z,10.60
2023-03-20T09:46:31.674Z,10.70
2023-03-20T09:49:08.802Z,11.00
2023-03-20T09:51:41.953Z,11.00
2023-03-20T09:54:18.286Z,11.40
2023-03-20T09:56:47.258Z,11.70
2023-03-20T09:59:19.163Z,11.80
2023-03-20T10:01:53.345Z,11.70
2023-03-20T10:04:22.202Z,12.00
2023-03-20T10:06:50.982Z,12.10
2023-03-20T10:09:24.833Z,12.00
2023-03-20T10:12:18.232Z,12.10
2023-03-20T10:14:56.276Z,12.10
2023-03-20T10:17:45.268Z,12.00
2023-03-20T10:20:15.554Z,12.20
2023-03-20T10:22:49.161Z,12.30
2023-03-20T10:25:27.370Z,12.30
2023-03-20T10:28:00.074Z,12.30
2023-03-20T10:30:45.443Z,12.50
2023-03-20T10:33:27.023Z,12.30
2023-03-20T10:36:10.831Z,12.40
2023-03-20T10:38:46.153Z,12.50
2023-03-20T10:41:18.810Z,12.80
2023-03-20T10:43:50.920Z,13.00
2023-03-20T10:46:24.739Z,12.70
2023-03-20T10:49:01.829Z,12.80
2023-03-20T10:51:41.371Z,12.70
2023-03-20T10:54:22.317Z,12.80
2023-03-20T10:56:55.885Z,12.90
2023-03-20T10:59:27.435Z,13.00
2023-03-20T11:01:56.607Z,13.00
2023-03-20T11:04:27.451Z,13.00
2023-03-20T11:07:04.789Z,13.00
2023-03-20T11:09:33.987Z,12.90
2023-03-20T11:12:04.338Z,12.70
2023-03-20T11:14:37.606Z,12.80
2023-03-20T11:17:38.058Z,12.80
2023-03-20T11:20:09.647Z,13.00
2023-03-20T11:22:39.677Z,13.10
2023-03-20T11:25:09.000Z,13.10
2023-03-20T11:27:37.971Z,13.20
2023-03-20T11:30:17.592Z,12.80
2023-03-20T11:32:49.741Z,12.80
2023-03-20T11:35:27.953Z,12.50
2023-03-20T11:38:09.606Z,12.30
2023-03-20T11:40:39.717Z,12.40
2023-03-20T11:43:13.694Z,12.30
2023-03-20T11:45:44.151Z,12.40
2023-03-20T11:48:20.274Z,12.40
2023-03-20T11:51:03.785Z,12.30
2023-03-20T11:53:36.550Z,12.40
2023-03-20T11:56:11.941Z,12.30
2023-03-20T11:58:52.212Z,12.30
2023-03-20T12:01:22.576Z,12.40
2023-03-20T12:03:55.629Z,12.50
2023-03-20T12:06:28.764Z,12.70
2023-03-20T12:09:01.683Z,12.80
2023-03-20T12:11:43.596Z,13.00
2023-03-20T12:14:23.591Z,13.40
2023-03-20T12:17:06.742Z,13.80
2023-03-20T12:19:36.465Z,13.90
2023-03-20T12:22:19.771Z,13.90
2023-03-20T12:24:54.496Z,14.00
2023-03-20T12:27:29.667Z,14.30
2023-03-20T12:30:04.852Z,14.30
2023-03-20T12:32:39.666Z,14.20
2023-03-20T12:35:16.670Z,14.30
2023-03-20T12:37:47.116Z,14.40
2023-03-20T12:40:18.893Z,14.40
2023-03-20T12:43:03.225Z,14.40
2023-03-20T12:45:38.557Z,14.40
2023-03-20T12:48:21.141Z,14.70
2023-03-20T12:50:55.087Z,14.90
2023-03-20T12:53:41.990Z,14.90
2023-03-20T12:56:25.631Z,14.80
2023-03-20T12:59:00.548Z,14.70
2023-03-20T13:01:33.393Z,14.90
2023-03-20T13:04:28.710Z,14.90
2023-03-20T13:07:02.163Z,15.00
2023-03-20T13:09:48.079Z,14.90
2023-03-20T13:12:30.866Z,14.70
2023-03-20T13:15:15.151Z,14.30
2023-03-20T13:17:50.734Z,14.20
2023-03-20T13:20:28.353Z,14.20
2023-03-20T13:23:11.182Z,14.20
2023-03-20T13:25:54.835Z,14.20
2023-03-20T13:28:31.053Z,14.40
2023-03-20T13:31:07.702Z,14.40
2023-03-20T13:33:47.598Z,14.60
2023-03-20T13:36:26.288Z,14.60
2023-03-20T13:39:00.599Z,14.70
2023-03-20T13:41:32.370Z,14.70
2023-03-20T13:44:03.628Z,14.70
2023-03-20T13:46:36.902Z,14.70
2023-03-20T13:49:09.778Z,14.60
2023-03-20T13:51:43.297Z,14.40
2023-03-20T13:54:23.795Z,14.60
2023-03-20T13:57:01.557Z,14.50
2023-03-20T13:59:46.474Z,14.60
2023-03-20T14:02:41.127Z,14.30
2023-03-20T14:05:15.613Z,14.00
2023-03-20T14:07:46.506Z,13.90
2023-03-20T14:10:42.848Z,14.00
2023-03-20T14:13:18.410Z,14.10
2023-03-20T14:15:53.891Z,14.10
2023-03-20T14:18:24.827Z,14.00
2023-03-20T14:21:16.678Z,13.90
2023-03-20T14:23:50.644Z,13.90
2023-03-20T14:26:24.142Z,13.90
2023-03-20T14:29:00.896Z,13.80
2023-03-20T14:31:34.194Z,13.80
2023-03-20T14:34:16.811Z,13.80
2023-03-20T14:36:52.917Z,14.00
2023-03-20T14:39:44.817Z,14.00
2023-03-20T14:42:40.699Z,14.10
2023-03-20T14:45:37.259Z,14.20
2023-03-20T14:48:17.274Z,14.30
2023-03-20T14:50:56.511Z,14.40
2023-03-20T14:53:27.683Z,14.40
2023-03-20T14:56:11.673Z,14.30
2023-03-20T14:58:57.936Z,14.20
2023-03-20T15:01:44.751Z,14.10
2023-03-20T15:04:32.987Z,14.10
2023-03-20T15:07:05.056Z,14.10
2023-03-20T15:09:40.169Z,14.10
2023-03-20T15:12:10.587Z,14.20
2023-03-20T15:14:46.386Z,14.20
2023-03-20T15:17:23.449Z,14.10
2023-03-20T15:19:52.614Z,13.80
2023-03-20T15:22:22.138Z,13.80
2023-03-20T15:24:55.850Z,13.40
2023-03-20T15:27:29.747Z,13.40
2023-03-20T15:30:01.582Z,13.60
2023-03-20T15:32:34.380Z,13.80
2023-03-20T15:35:06.059Z,13.90
2023-03-20T15:37:36.042Z,13.90
2023-03-20T15:40:13.304Z,13.80
2023-03-20T15:42:42.571Z,13.90
2023-03-20T15:45:24.480Z,13.80
2023-03-20T15:48:01.105Z,13.80
2023-03-20T15:50:34.184Z,13.80
2023-03-20T15:53:04.561Z,13.80
2023-03-20T15:55:33.937Z,13.90
2023-03-20T15:58:04.037Z,13.90
2023-03-20T16:00:35.388Z,13.80
2023-03-20T16:03:09.031Z,13.80
2023-03-20T16:05:38.016Z,13.70
2023-03-20T16:08:23.114Z,13.70
2023-03-20T16:10:57.796Z,13.50
2023-03-20T16:13:27.980Z,13.50
2023-03-20T16:15:57.497Z,13.50
2023-03-20T16:18:37.376Z,13.50
2023-03-20T16:21:10.859Z,13.60
2023-03-20T16:23:42.483Z,13.60
2023-03-20T16:26:17.080Z,13.70
2023-03-20T16:28:48.355Z,13.70
2023-03-20T16:31:21.301Z,13.70
2023-03-20T16:33:51.524Z,13.70
2023-03-20T16:36:24.009Z,13.60
2023-03-20T16:38:56.768Z,13.60
2023-03-20T16:41:30.854Z,13.60
2023-03-20T16:44:00.022Z,13.50
2023-03-20T16:46:29.851Z,13.50
2023-03-20T16:49:41.832Z,13.50
2023-03-20T16:52:15.913Z,13.40
2023-03-20T16:54:46.523Z,13.50
2023-03-20T16:57:18.452Z,13.60
2023-03-20T16:59:49.811Z,13.60
2023-03-20T17:02:25.938Z,13.50
2023-03-20T17:05:02.662Z,13.50
2023-03-20T17:07:32.602Z,13.50
2023-03-20T17:10:13.040Z,13.60
2023-03-20T17:12:43.474Z,13.40
2023-03-20T17:15:16.521Z,13.30
2023-03-20T17:17:45.394Z,13.30
2023-03-20T17:20:21.018Z,13.30
2023-03-20T17:22:50.513Z,13.20
2023-03-20T17:25:20.051Z,13.10
2023-03-20T17:27:49.026Z,13.00
2023-03-20T17:30:19.885Z,13.00
2023-03-20T17:32:49.275Z,12.90
2023-03-20T17:35:19.525Z,13.00
2023-03-20T17:37:49.263Z,13.20
2023-03-20T17:40:20.119Z,13.20
2023-03-20T17:42:49.126Z,13.20
2023-03-20T17:45:20.862Z,13.10
2023-03-20T17:47:51.601Z,13.20
2023-03-20T17:50:25.499Z,13.20
2023-03-20T17:52:55.083Z,13.10
2023-03-20T17:55:24.388Z,13.10
2023-03-20T17:57:53.968Z,13.10
2023-03-20T18:00:24.979Z,13.10
2023-03-20T18:02:54.115Z,13.10
2023-03-20T18:05:24.564Z,13.10
2023-03-20T18:07:53.517Z,13.20
2023-03-20T18:10:29.209Z,13.20
2023-03-20T18:12:58.126Z,13.20
2023-03-20T18:15:28.913Z,13.00
2023-03-20T18:17:57.981Z,12.90
2023-03-20T18:20:30.386Z,13.00
2023-03-20T18:22:59.524Z,13.00
2023-03-20T18:25:28.612Z,13.10
2023-03-20T18:27:59.373Z,13.00
2023-03-20T18:30:32.367Z,13.10
2023-03-20T18:33:01.307Z,13.00
2023-03-20T18:35:31.982Z,13.00
2023-03-20T18:38:01.646Z,12.90
2023-03-20T18:40:32.821Z,12.90
2023-03-20T18:43:02.177Z,12.90
2023-03-20T18:45:33.697Z,12.90
2023-03-20T18:48:03.898Z,13.00
2023-03-20T18:50:37.526Z,13.10
2023-03-20T18:53:08.296Z,13.20
2023-03-20T18:55:38.203Z,13.20
2023-03-20T18:58:07.279Z,13.10
2023-03-20T19:00:39.967Z,13.00
2023-03-20T19:03:11.716Z,13.00
2023-03-20T19:05:42.025Z,13.00
2023-03-20T19:08:16.866Z,13.00
2023-03-20T19:10:47.057Z,13.10
2023-03-20T19:13:18.748Z,13.10
2023-03-20T19:15:47.933Z,13.10
2023-03-20T19:18:21.677Z,13.10
2023-03-20T19:20:53.152Z,13.10
2023-03-20T19:23:22.771Z,13.10
2023-03-20T19:25:54.316Z,13.10
2023-03-20T19:28:37.843Z,13.10
2023-03-20T19:31:08.146Z,13.00
2023-03-20T19:33:37.248Z,13.10
2023-03-20T19:36:08.554Z,13.10
2023-03-20T19:38:38.217Z,13.10
2023-03-20T19:41:08.666Z,13.10
2023-03-20T19:43:51.702Z,13.10
2023-03-20T19:46:39.817Z,13.00
2023-03-20T19:49:18.936Z,12.90
2023-03-20T19:51:51.965Z,13.00
2023-03-20T19:54:20.692Z,12.90
2023-03-20T19:56:49.372Z,12.90
2023-03-20T19:59:18.324Z,12.80
2023-03-20T20:01:47.426Z,12.80
2023-03-20T20:04:16.994Z,12.90
2023-03-20T20:06:47.318Z,12.90
2023-03-20T20:09:18.399Z,12.80
2023-03-20T20:11:47.363Z,12.80
2023-03-20T20:14:16.580Z,12.70
2023-03-20T20:16:45.950Z,12.80
2023-03-20T20:19:14.859Z,12.70
2023-03-20T20:24:34.061Z,12.70
2023-03-20T20:27:16.245Z,12.60
2023-03-20T20:29:49.094Z,12.50
2023-03-20T20:32:19.965Z,12.50
2023-03-20T20:38:28.108Z,12.60
2023-03-20T20:40:32.419Z,12.50
2023-03-20T20:43:02.641Z,12.50
2023-03-20T20:45:32.540Z,12.50
2023-03-20T20:48:02.012Z,12.40
2023-03-20T20:50:33.175Z,12.50
2023-03-20T20:53:02.054Z,12.60
2023-03-20T20:55:32.718Z,12.60
2023-03-20T20:58:03.736Z,12.50
2023-03-20T21:00:47.966Z,12.40
2023-03-20T21:03:20.052Z,12.40
2023-03-20T21:05:48.926Z,12.40
2023-03-20T21:08:18.991Z,12.50
2023-03-20T21:10:50.864Z,12.40
2023-03-20T21:13:19.974Z,12.40
2023-03-20T21:15:48.855Z,12.40
2023-03-20T21:18:17.642Z,12.20
2023-03-20T21:20:46.337Z,12.30
2023-03-20T21:23:15.426Z,12.30
2023-03-20T21:25:47.273Z,12.30
2023-03-20T21:28:18.171Z,12.40
2023-03-20T21:31:16.248Z,12.30
2023-03-20T21:33:38.818Z,12.40
2023-03-20T21:36:08.138Z,12.30
2023-03-20T21:41:25.928Z,12.20
2023-03-20T21:43:56.247Z,12.20
2023-03-20T21:47:04.090Z,12.20
2023-03-20T21:50:19.158Z,12.30
2023-03-20T21:55:37.015Z,12.30
2023-03-20T21:58:29.203Z,12.30
2023-03-20T22:01:21.669Z,12.30
2023-03-20T22:04:02.827Z,12.30
2023-03-20T22:07:17.844Z,12.20
2023-03-20T22:12:50.162Z,12.30
2023-03-20T22:15:33.803Z,12.40
2023-03-20T22:18:12.379Z,12.40
2023-03-20T22:21:13.358Z,12.40
2023-03-20T22:23:53.296Z,12.60
2023-03-20T22:46:05.419Z,12.70
2023-03-20T22:48:41.228Z,12.70
2023-03-20T22:51:12.717Z,12.70
2023-03-20T22:53:42.486Z,12.80
2023-03-20T22:56:12.981Z,12.90
2023-03-20T22:58:42.041Z,12.90
2023-03-20T23:01:11.847Z,12.90
2023-03-20T23:03:42.314Z,13.00
2023-03-20T23:06:20.024Z,13.00
2023-03-20T23:08:55.238Z,12.90
2023-03-20T23:11:27.057Z,12.90
2023-03-20T23:13:57.329Z,12.90
2023-03-20T23:16:26.223Z,13.00
2023-03-20T23:18:55.593Z,13.00
2023-03-20T23:21:26.724Z,12.90
2023-03-20T23:23:55.523Z,12.90
2023-03-20T23:26:24.425Z,12.90
2023-03-20T23:28:53.778Z,12.80
2023-03-20T23:31:25.524Z,12.80
2023-03-20T23:33:55.697Z,12.80
2023-03-20T23:36:42.073Z,12.80
2023-03-20T23:39:14.103Z,12.80
2023-03-20T23:42:05.086Z,12.80
2023-03-20T23:44:31.851Z,12.90
2023-03-20T23:47:03.372Z,12.80
2023-03-20T23:49:36.999Z,12.90
2023-03-20T23:52:08.017Z,12.80
2023-03-20T23:54:36.971Z,12.70
2023-03-20T23:57:05.925Z,12.80
2023-03-20T23:59:34.781Z,12.90
